sensor_id;sensor_type;location;lat;lon;timestamp;P1;P2;P0
47079;PMS5003;33067;49.296;14.470;2024-01-06T00:01:22;48;45;
47079;PMS5003;33067;49.296;14.470;2024-01-06T00:03:48;40;35;
47079;PMS5003;33067;49.296;14.470;2024-01-06T00:06:13;48;43;
47079;PMS5003;33067;49.296;14.470;2024-01-06T00:08:38;41;34;
47079;PMS5003;33067;49.296;14.470;2024-01-06T00:11:04;29;27;
47079;PMS5003;33067;49.296;14.470;2024-01-06T00:13:29;43;40;
47079;PMS5003;33067;49.296;14.470;2024-01-06T00:15:54;44;44;
47079;PMS5003;33067;49.296;14.470;2024-01-06T00:18:20;52;46;
47079;PMS5003;33067;49.296;14.470;2024-01-06T00:20:45;58;52;
47079;PMS5003;33067;49.296;14.470;2024-01-06T00:23:11;52;43;
47079;PMS5003;33067;49.296;14.470;2024-01-06T00:25:36;43;37;
47079;PMS5003;33067;49.296;14.470;2024-01-06T00:28:01;33;33;
47079;PMS5003;33067;49.296;14.470;2024-01-06T00:30:27;33;31;
47079;PMS5003;33067;49.296;14.470;2024-01-06T00:32:52;37;36;
47079;PMS5003;33067;49.296;14.470;2024-01-06T00:35:18;54;47;
47079;PMS5003;33067;49.296;14.470;2024-01-06T00:37:43;62;52;
47079;PMS5003;33067;49.296;14.470;2024-01-06T00:40:08;73;61;
47079;PMS5003;33067;49.296;14.470;2024-01-06T00:42:34;61;59;
47079;PMS5003;33067;49.296;14.470;2024-01-06T00:44:59;63;61;
47079;PMS5003;33067;49.296;14.470;2024-01-06T00:47:25;63;60;
47079;PMS5003;33067;49.296;14.470;2024-01-06T00:49:51;60;55;
47079;PMS5003;33067;49.296;14.470;2024-01-06T00:52:16;57;57;
47079;PMS5003;33067;49.296;14.470;2024-01-06T00:54:41;68;63;
47079;PMS5003;33067;49.296;14.470;2024-01-06T00:57:07;60;53;
47079;PMS5003;33067;49.296;14.470;2024-01-06T00:59:33;59;53;
47079;PMS5003;33067;49.296;14.470;2024-01-06T01:01:58;62;55;
47079;PMS5003;33067;49.296;14.470;2024-01-06T01:04:23;70;65;
47079;PMS5003;33067;49.296;14.470;2024-01-06T01:06:49;64;59;
47079;PMS5003;33067;49.296;14.470;2024-01-06T01:09:15;65;59;
47079;PMS5003;33067;49.296;14.470;2024-01-06T01:11:41;56;56;
47079;PMS5003;33067;49.296;14.470;2024-01-06T01:14:06;54;51;
47079;PMS5003;33067;49.296;14.470;2024-01-06T01:16:32;59;55;
47079;PMS5003;33067;49.296;14.470;2024-01-06T01:18:57;57;50;
47079;PMS5003;33067;49.296;14.470;2024-01-06T01:21:23;58;50;
47079;PMS5003;33067;49.296;14.470;2024-01-06T01:23:48;70;61;
47079;PMS5003;33067;49.296;14.470;2024-01-06T01:26:14;66;61;
47079;PMS5003;33067;49.296;14.470;2024-01-06T01:28:39;80;73;
47079;PMS5003;33067;49.296;14.470;2024-01-06T01:31:05;66;61;
47079;PMS5003;33067;49.296;14.470;2024-01-06T01:33:30;71;66;
47079;PMS5003;33067;49.296;14.470;2024-01-06T01:35:56;66;63;
47079;PMS5003;33067;49.296;14.470;2024-01-06T01:38:22;64;60;
47079;PMS5003;33067;49.296;14.470;2024-01-06T01:40:47;55;53;
47079;PMS5003;33067;49.296;14.470;2024-01-06T01:43:16;79;70;
47079;PMS5003;33067;49.296;14.470;2024-01-06T01:45:38;63;60;
47079;PMS5003;33067;49.296;14.470;2024-01-06T01:48:04;61;54;
47079;PMS5003;33067;49.296;14.470;2024-01-06T01:50:30;72;68;
47079;PMS5003;33067;49.296;14.470;2024-01-06T01:52:55;72;70;
47079;PMS5003;33067;49.296;14.470;2024-01-06T01:55:21;76;72;
47079;PMS5003;33067;49.296;14.470;2024-01-06T01:57:46;76;69;
47079;PMS5003;33067;49.296;14.470;2024-01-06T02:00:12;69;63;
47079;PMS5003;33067;49.296;14.470;2024-01-06T02:02:37;62;55;
47079;PMS5003;33067;49.296;14.470;2024-01-06T02:05:02;66;57;
47079;PMS5003;33067;49.296;14.470;2024-01-06T02:07:28;66;64;
47079;PMS5003;33067;49.296;14.470;2024-01-06T02:09:53;66;57;
47079;PMS5003;33067;49.296;14.470;2024-01-06T02:12:18;56;52;
47079;PMS5003;33067;49.296;14.470;2024-01-06T02:14:44;52;50;
47079;PMS5003;33067;49.296;14.470;2024-01-06T02:17:10;57;56;
47079;PMS5003;33067;49.296;14.470;2024-01-06T02:19:34;59;52;
47079;PMS5003;33067;49.296;14.470;2024-01-06T02:21:59;61;55;
47079;PMS5003;33067;49.296;14.470;2024-01-06T02:24:25;61;55;
47079;PMS5003;33067;49.296;14.470;2024-01-06T02:26:50;61;57;
47079;PMS5003;33067;49.296;14.470;2024-01-06T02:29:16;69;60;
47079;PMS5003;33067;49.296;14.470;2024-01-06T02:31:41;68;63;
47079;PMS5003;33067;49.296;14.470;2024-01-06T02:34:07;66;59;
47079;PMS5003;33067;49.296;14.470;2024-01-06T02:36:32;57;56;
47079;PMS5003;33067;49.296;14.470;2024-01-06T02:38:57;63;58;
47079;PMS5003;33067;49.296;14.470;2024-01-06T02:41:23;68;65;
47079;PMS5003;33067;49.296;14.470;2024-01-06T02:43:48;58;57;
47079;PMS5003;33067;49.296;14.470;2024-01-06T02:46:13;54;49;
47079;PMS5003;33067;49.296;14.470;2024-01-06T02:48:39;59;56;
47079;PMS5003;33067;49.296;14.470;2024-01-06T02:51:04;61;55;
47079;PMS5003;33067;49.296;14.470;2024-01-06T02:53:29;68;61;
47079;PMS5003;33067;49.296;14.470;2024-01-06T02:55:55;62;58;
47079;PMS5003;33067;49.296;14.470;2024-01-06T02:58:21;57;49;
47079;PMS5003;33067;49.296;14.470;2024-01-06T03:00:46;56;51;
47079;PMS5003;33067;49.296;14.470;2024-01-06T03:03:12;66;60;
47079;PMS5003;33067;49.296;14.470;2024-01-06T03:05:37;73;72;
47079;PMS5003;33067;49.296;14.470;2024-01-06T03:08:03;61;54;
47079;PMS5003;33067;49.296;14.470;2024-01-06T03:13:00;61;56;
47079;PMS5003;33067;49.296;14.470;2024-01-06T03:15:26;69;62;
47079;PMS5003;33067;49.296;14.470;2024-01-06T03:17:52;51;48;
47079;PMS5003;33067;49.296;14.470;2024-01-06T03:20:17;53;48;
47079;PMS5003;33067;49.296;14.470;2024-01-06T03:22:42;53;51;
47079;PMS5003;33067;49.296;14.470;2024-01-06T03:25:08;54;49;
47079;PMS5003;33067;49.296;14.470;2024-01-06T03:27:33;65;60;
47079;PMS5003;33067;49.296;14.470;2024-01-06T03:29:59;60;50;
47079;PMS5003;33067;49.296;14.470;2024-01-06T03:32:24;57;54;
47079;PMS5003;33067;49.296;14.470;2024-01-06T03:34:50;56;47;
47079;PMS5003;33067;49.296;14.470;2024-01-06T03:37:16;61;59;
47079;PMS5003;33067;49.296;14.470;2024-01-06T03:39:41;61;50;
47079;PMS5003;33067;49.296;14.470;2024-01-06T03:42:06;55;49;
47079;PMS5003;33067;49.296;14.470;2024-01-06T03:44:31;49;46;
47079;PMS5003;33067;49.296;14.470;2024-01-06T03:46:57;64;59;
47079;PMS5003;33067;49.296;14.470;2024-01-06T03:49:23;69;61;
47079;PMS5003;33067;49.296;14.470;2024-01-06T03:51:48;66;61;
47079;PMS5003;33067;49.296;14.470;2024-01-06T03:54:13;78;70;
47079;PMS5003;33067;49.296;14.470;2024-01-06T03:56:39;69;65;
47079;PMS5003;33067;49.296;14.470;2024-01-06T03:59:04;69;61;
47079;PMS5003;33067;49.296;14.470;2024-01-06T04:01:30;74;64;
47079;PMS5003;33067;49.296;14.470;2024-01-06T04:03:55;76;65;
47079;PMS5003;33067;49.296;14.470;2024-01-06T04:06:21;57;55;
47079;PMS5003;33067;49.296;14.470;2024-01-06T04:08:46;69;56;
47079;PMS5003;33067;49.296;14.470;2024-01-06T04:11:12;67;63;
47079;PMS5003;33067;49.296;14.470;2024-01-06T04:13:37;56;54;
47079;PMS5003;33067;49.296;14.470;2024-01-06T04:16:03;54;54;
47079;PMS5003;33067;49.296;14.470;2024-01-06T04:18:28;63;58;
47079;PMS5003;33067;49.296;14.470;2024-01-06T04:20:53;56;54;
47079;PMS5003;33067;49.296;14.470;2024-01-06T04:23:18;63;60;
47079;PMS5003;33067;49.296;14.470;2024-01-06T04:25:43;58;54;
47079;PMS5003;33067;49.296;14.470;2024-01-06T04:28:09;62;54;
47079;PMS5003;33067;49.296;14.470;2024-01-06T04:30:35;66;55;
47079;PMS5003;33067;49.296;14.470;2024-01-06T04:33:00;60;57;
47079;PMS5003;33067;49.296;14.470;2024-01-06T04:35:26;59;56;
47079;PMS5003;33067;49.296;14.470;2024-01-06T04:37:51;56;55;
47079;PMS5003;33067;49.296;14.470;2024-01-06T04:40:17;60;56;
47079;PMS5003;33067;49.296;14.470;2024-01-06T04:42:42;54;47;
47079;PMS5003;33067;49.296;14.470;2024-01-06T04:45:08;54;51;
47079;PMS5003;33067;49.296;14.470;2024-01-06T04:47:33;57;54;
47079;PMS5003;33067;49.296;14.470;2024-01-06T04:49:58;60;56;
47079;PMS5003;33067;49.296;14.470;2024-01-06T04:52:24;50;46;
47079;PMS5003;33067;49.296;14.470;2024-01-06T04:54:49;50;47;
47079;PMS5003;33067;49.296;14.470;2024-01-06T04:57:14;51;44;
47079;PMS5003;33067;49.296;14.470;2024-01-06T04:59:40;52;45;
47079;PMS5003;33067;49.296;14.470;2024-01-06T05:02:05;52;47;
47079;PMS5003;33067;49.296;14.470;2024-01-06T05:04:31;74;65;
47079;PMS5003;33067;49.296;14.470;2024-01-06T05:06:57;51;45;
47079;PMS5003;33067;49.296;14.470;2024-01-06T05:09:22;58;56;
47079;PMS5003;33067;49.296;14.470;2024-01-06T05:11:47;48;47;
47079;PMS5003;33067;49.296;14.470;2024-01-06T05:14:12;54;49;
47079;PMS5003;33067;49.296;14.470;2024-01-06T05:16:37;50;49;
47079;PMS5003;33067;49.296;14.470;2024-01-06T05:19:03;50;43;
47079;PMS5003;33067;49.296;14.470;2024-01-06T05:21:28;50;48;
47079;PMS5003;33067;49.296;14.470;2024-01-06T05:23:54;62;61;
47079;PMS5003;33067;49.296;14.470;2024-01-06T05:26:19;56;54;
47079;PMS5003;33067;49.296;14.470;2024-01-06T05:28:45;53;51;
47079;PMS5003;33067;49.296;14.470;2024-01-06T05:31:10;54;50;
47079;PMS5003;33067;49.296;14.470;2024-01-06T05:33:36;52;47;
47079;PMS5003;33067;49.296;14.470;2024-01-06T05:36:01;46;42;
47079;PMS5003;33067;49.296;14.470;2024-01-06T05:38:27;59;50;
47079;PMS5003;33067;49.296;14.470;2024-01-06T05:40:52;50;48;
47079;PMS5003;33067;49.296;14.470;2024-01-06T05:43:18;50;46;
47079;PMS5003;33067;49.296;14.470;2024-01-06T05:45:43;61;54;
47079;PMS5003;33067;49.296;14.470;2024-01-06T05:48:09;61;58;
47079;PMS5003;33067;49.296;14.470;2024-01-06T05:50:34;106;98;
47079;PMS5003;33067;49.296;14.470;2024-01-06T05:52:59;77;70;
47079;PMS5003;33067;49.296;14.470;2024-01-06T05:55:25;65;55;
47079;PMS5003;33067;49.296;14.470;2024-01-06T05:57:50;65;61;
47079;PMS5003;33067;49.296;14.470;2024-01-06T06:00:16;59;55;
47079;PMS5003;33067;49.296;14.470;2024-01-06T06:02:42;60;56;
47079;PMS5003;33067;49.296;14.470;2024-01-06T06:05:07;58;54;
47079;PMS5003;33067;49.296;14.470;2024-01-06T06:07:33;62;54;
47079;PMS5003;33067;49.296;14.470;2024-01-06T06:09:58;55;52;
47079;PMS5003;33067;49.296;14.470;2024-01-06T06:12:24;67;60;
47079;PMS5003;33067;49.296;14.470;2024-01-06T06:14:50;54;52;
47079;PMS5003;33067;49.296;14.470;2024-01-06T06:17:15;52;49;
47079;PMS5003;33067;49.296;14.470;2024-01-06T06:19:40;58;56;
47079;PMS5003;33067;49.296;14.470;2024-01-06T06:22:06;57;51;
47079;PMS5003;33067;49.296;14.470;2024-01-06T06:24:31;57;50;
47079;PMS5003;33067;49.296;14.470;2024-01-06T06:26:56;52;50;
47079;PMS5003;33067;49.296;14.470;2024-01-06T06:29:21;55;51;
47079;PMS5003;33067;49.296;14.470;2024-01-06T06:31:47;44;41;
47079;PMS5003;33067;49.296;14.470;2024-01-06T06:34:12;63;60;
47079;PMS5003;33067;49.296;14.470;2024-01-06T06:36:38;62;54;
47079;PMS5003;33067;49.296;14.470;2024-01-06T06:39:03;60;60;
47079;PMS5003;33067;49.296;14.470;2024-01-06T06:41:28;67;61;
47079;PMS5003;33067;49.296;14.470;2024-01-06T06:43:54;51;41;
47079;PMS5003;33067;49.296;14.470;2024-01-06T06:46:19;63;50;
47079;PMS5003;33067;49.296;14.470;2024-01-06T06:48:44;59;53;
47079;PMS5003;33067;49.296;14.470;2024-01-06T06:51:10;61;53;
47079;PMS5003;33067;49.296;14.470;2024-01-06T06:53:35;61;56;
47079;PMS5003;33067;49.296;14.470;2024-01-06T06:56:01;64;56;
47079;PMS5003;33067;49.296;14.470;2024-01-06T06:58:26;51;50;
47079;PMS5003;33067;49.296;14.470;2024-01-06T07:00:51;55;51;
47079;PMS5003;33067;49.296;14.470;2024-01-06T07:03:17;66;56;
47079;PMS5003;33067;49.296;14.470;2024-01-06T07:05:42;61;57;
47079;PMS5003;33067;49.296;14.470;2024-01-06T07:08:08;55;51;
47079;PMS5003;33067;49.296;14.470;2024-01-06T07:10:33;55;48;
47079;PMS5003;33067;49.296;14.470;2024-01-06T07:12:59;59;56;
47079;PMS5003;33067;49.296;14.470;2024-01-06T07:15:24;56;47;
47079;PMS5003;33067;49.296;14.470;2024-01-06T07:17:49;53;51;
47079;PMS5003;33067;49.296;14.470;2024-01-06T07:20:15;57;53;
47079;PMS5003;33067;49.296;14.470;2024-01-06T07:22:40;52;45;
47079;PMS5003;33067;49.296;14.470;2024-01-06T07:25:05;61;47;
47079;PMS5003;33067;49.296;14.470;2024-01-06T07:27:31;56;51;
47079;PMS5003;33067;49.296;14.470;2024-01-06T07:29:56;59;50;
47079;PMS5003;33067;49.296;14.470;2024-01-06T07:32:22;45;41;
47079;PMS5003;33067;49.296;14.470;2024-01-06T07:34:47;48;43;
47079;PMS5003;33067;49.296;14.470;2024-01-06T07:37:13;51;49;
47079;PMS5003;33067;49.296;14.470;2024-01-06T07:39:38;52;45;
47079;PMS5003;33067;49.296;14.470;2024-01-06T07:42:04;46;41;
47079;PMS5003;33067;49.296;14.470;2024-01-06T07:44:30;43;42;
47079;PMS5003;33067;49.296;14.470;2024-01-06T07:46:55;52;47;
47079;PMS5003;33067;49.296;14.470;2024-01-06T07:49:21;50;49;
47079;PMS5003;33067;49.296;14.470;2024-01-06T07:51:46;45;45;
47079;PMS5003;33067;49.296;14.470;2024-01-06T07:54:12;51;46;
47079;PMS5003;33067;49.296;14.470;2024-01-06T07:56:37;59;54;
47079;PMS5003;33067;49.296;14.470;2024-01-06T07:59:02;47;44;
47079;PMS5003;33067;49.296;14.470;2024-01-06T08:01:27;58;51;
47079;PMS5003;33067;49.296;14.470;2024-01-06T08:03:53;52;49;
47079;PMS5003;33067;49.296;14.470;2024-01-06T08:06:19;60;57;
47079;PMS5003;33067;49.296;14.470;2024-01-06T08:08:44;67;57;
47079;PMS5003;33067;49.296;14.470;2024-01-06T08:11:09;73;65;
47079;PMS5003;33067;49.296;14.470;2024-01-06T08:13:35;77;72;
47079;PMS5003;33067;49.296;14.470;2024-01-06T08:16:01;67;61;
47079;PMS5003;33067;49.296;14.470;2024-01-06T08:18:26;64;59;
47079;PMS5003;33067;49.296;14.470;2024-01-06T08:20:51;46;45;
47079;PMS5003;33067;49.296;14.470;2024-01-06T08:23:16;52;50;
47079;PMS5003;33067;49.296;14.470;2024-01-06T08:25:42;40;40;
47079;PMS5003;33067;49.296;14.470;2024-01-06T08:28:08;65;56;
47079;PMS5003;33067;49.296;14.470;2024-01-06T08:30:33;61;57;
47079;PMS5003;33067;49.296;14.470;2024-01-06T08:32:59;55;52;
47079;PMS5003;33067;49.296;14.470;2024-01-06T08:35:24;51;48;
47079;PMS5003;33067;49.296;14.470;2024-01-06T08:37:50;56;53;
47079;PMS5003;33067;49.296;14.470;2024-01-06T08:40:16;59;55;
47079;PMS5003;33067;49.296;14.470;2024-01-06T08:42:40;52;51;
47079;PMS5003;33067;49.296;14.470;2024-01-06T08:45:06;53;48;
47079;PMS5003;33067;49.296;14.470;2024-01-06T08:47:31;51;48;
47079;PMS5003;33067;49.296;14.470;2024-01-06T08:49:56;64;57;
47079;PMS5003;33067;49.296;14.470;2024-01-06T08:52:22;57;49;
47079;PMS5003;33067;49.296;14.470;2024-01-06T08:54:47;65;61;
47079;PMS5003;33067;49.296;14.470;2024-01-06T08:57:12;65;61;
47079;PMS5003;33067;49.296;14.470;2024-01-06T08:59:38;61;54;
47079;PMS5003;33067;49.296;14.470;2024-01-06T09:02:04;53;49;
47079;PMS5003;33067;49.296;14.470;2024-01-06T09:04:29;66;60;
47079;PMS5003;33067;49.296;14.470;2024-01-06T09:06:54;70;64;
47079;PMS5003;33067;49.296;14.470;2024-01-06T09:09:20;93;84;
47079;PMS5003;33067;49.296;14.470;2024-01-06T09:11:46;81;81;
47079;PMS5003;33067;49.296;14.470;2024-01-06T09:14:11;85;77;
47079;PMS5003;33067;49.296;14.470;2024-01-06T09:16:36;90;85;
47079;PMS5003;33067;49.296;14.470;2024-01-06T09:19:02;107;97;
47079;PMS5003;33067;49.296;14.470;2024-01-06T09:21:27;98;88;
47079;PMS5003;33067;49.296;14.470;2024-01-06T09:23:53;99;92;
47079;PMS5003;33067;49.296;14.470;2024-01-06T09:26:18;80;72;
47079;PMS5003;33067;49.296;14.470;2024-01-06T09:28:43;78;72;
47079;PMS5003;33067;49.296;14.470;2024-01-06T09:31:09;61;57;
47079;PMS5003;33067;49.296;14.470;2024-01-06T09:33:34;76;67;
47079;PMS5003;33067;49.296;14.470;2024-01-06T09:35:59;66;63;
47079;PMS5003;33067;49.296;14.470;2024-01-06T09:38:24;56;52;
47079;PMS5003;33067;49.296;14.470;2024-01-06T09:40:50;72;62;
47079;PMS5003;33067;49.296;14.470;2024-01-06T09:43:15;64;55;
47079;PMS5003;33067;49.296;14.470;2024-01-06T09:45:40;67;61;
47079;PMS5003;33067;49.296;14.470;2024-01-06T09:48:09;65;63;
47079;PMS5003;33067;49.296;14.470;2024-01-06T09:50:31;60;58;
47079;PMS5003;33067;49.296;14.470;2024-01-06T09:52:57;50;46;
47079;PMS5003;33067;49.296;14.470;2024-01-06T09:55:23;57;51;
47079;PMS5003;33067;49.296;14.470;2024-01-06T09:57:48;58;54;
47079;PMS5003;33067;49.296;14.470;2024-01-06T10:00:13;64;57;
47079;PMS5003;33067;49.296;14.470;2024-01-06T10:02:39;54;51;
47079;PMS5003;33067;49.296;14.470;2024-01-06T10:05:04;56;51;
47079;PMS5003;33067;49.296;14.470;2024-01-06T10:07:30;55;48;
47079;PMS5003;33067;49.296;14.470;2024-01-06T10:09:55;54;49;
47079;PMS5003;33067;49.296;14.470;2024-01-06T10:12:22;62;58;
47079;PMS5003;33067;49.296;14.470;2024-01-06T10:14:45;77;73;
47079;PMS5003;33067;49.296;14.470;2024-01-06T10:17:10;88;81;
47079;PMS5003;33067;49.296;14.470;2024-01-06T10:19:35;87;79;
47079;PMS5003;33067;49.296;14.470;2024-01-06T10:22:01;80;71;
47079;PMS5003;33067;49.296;14.470;2024-01-06T10:24:26;78;67;
47079;PMS5003;33067;49.296;14.470;2024-01-06T10:26:51;58;55;
47079;PMS5003;33067;49.296;14.470;2024-01-06T10:29:16;57;51;
47079;PMS5003;33067;49.296;14.470;2024-01-06T10:31:42;62;58;
47079;PMS5003;33067;49.296;14.470;2024-01-06T10:34:07;55;53;
47079;PMS5003;33067;49.296;14.470;2024-01-06T10:36:32;61;58;
47079;PMS5003;33067;49.296;14.470;2024-01-06T10:38:58;71;63;
47079;PMS5003;33067;49.296;14.470;2024-01-06T10:41:24;59;50;
47079;PMS5003;33067;49.296;14.470;2024-01-06T10:43:48;61;57;
47079;PMS5003;33067;49.296;14.470;2024-01-06T10:46:14;66;59;
47079;PMS5003;33067;49.296;14.470;2024-01-06T10:48:40;69;66;
47079;PMS5003;33067;49.296;14.470;2024-01-06T10:51:05;73;69;
47079;PMS5003;33067;49.296;14.470;2024-01-06T10:53:30;76;73;
47079;PMS5003;33067;49.296;14.470;2024-01-06T10:55:55;66;56;
47079;PMS5003;33067;49.296;14.470;2024-01-06T10:58:21;84;79;
47079;PMS5003;33067;49.296;14.470;2024-01-06T11:00:47;75;70;
47079;PMS5003;33067;49.296;14.470;2024-01-06T11:03:12;65;59;
47079;PMS5003;33067;49.296;14.470;2024-01-06T11:05:37;87;83;
47079;PMS5003;33067;49.296;14.470;2024-01-06T11:08:03;75;74;
47079;PMS5003;33067;49.296;14.470;2024-01-06T11:10:29;69;63;
47079;PMS5003;33067;49.296;14.470;2024-01-06T11:17:49;68;57;
47079;PMS5003;33067;49.296;14.470;2024-01-06T11:20:11;65;57;
47079;PMS5003;33067;49.296;14.470;2024-01-06T11:22:37;66;54;
47079;PMS5003;33067;49.296;14.470;2024-01-06T11:25:04;64;56;
47079;PMS5003;33067;49.296;14.470;2024-01-06T11:27:28;64;58;
47079;PMS5003;33067;49.296;14.470;2024-01-06T11:29:54;68;59;
47079;PMS5003;33067;49.296;14.470;2024-01-06T11:32:20;65;60;
47079;PMS5003;33067;49.296;14.470;2024-01-06T11:34:47;61;56;
47079;PMS5003;33067;49.296;14.470;2024-01-06T11:37:10;54;49;
47079;PMS5003;33067;49.296;14.470;2024-01-06T11:39:36;50;48;
47079;PMS5003;33067;49.296;14.470;2024-01-06T11:42:01;50;49;
47079;PMS5003;33067;49.296;14.470;2024-01-06T11:44:27;50;44;
47079;PMS5003;33067;49.296;14.470;2024-01-06T11:46:51;49;43;
47079;PMS5003;33067;49.296;14.470;2024-01-06T11:49:17;43;42;
47079;PMS5003;33067;49.296;14.470;2024-01-06T11:51:43;53;48;
47079;PMS5003;33067;49.296;14.470;2024-01-06T11:54:09;44;43;
47079;PMS5003;33067;49.296;14.470;2024-01-06T11:56:34;54;50;
47079;PMS5003;33067;49.296;14.470;2024-01-06T11:59:04;59;56;
47079;PMS5003;33067;49.296;14.470;2024-01-06T12:01:24;62;59;
47079;PMS5003;33067;49.296;14.470;2024-01-06T12:03:56;66;59;
47079;PMS5003;33067;49.296;14.470;2024-01-06T12:06:19;69;61;
47079;PMS5003;33067;49.296;14.470;2024-01-06T12:08:42;63;63;
47079;PMS5003;33067;49.296;14.470;2024-01-06T12:11:06;66;58;
47079;PMS5003;33067;49.296;14.470;2024-01-06T12:13:31;64;60;
47079;PMS5003;33067;49.296;14.470;2024-01-06T12:15:57;60;49;
47079;PMS5003;33067;49.296;14.470;2024-01-06T12:18:25;51;47;
47079;PMS5003;33067;49.296;14.470;2024-01-06T12:25:38;57;55;
47079;PMS5003;33067;49.296;14.470;2024-01-06T12:28:03;77;75;
47079;PMS5003;33067;49.296;14.470;2024-01-06T12:30:28;100;86;
47079;PMS5003;33067;49.296;14.470;2024-01-06T12:32:53;83;72;
47079;PMS5003;33067;49.296;14.470;2024-01-06T12:35:19;70;59;
47079;PMS5003;33067;49.296;14.470;2024-01-06T12:37:45;60;53;
47079;PMS5003;33067;49.296;14.470;2024-01-06T12:40:11;76;70;
47079;PMS5003;33067;49.296;14.470;2024-01-06T12:42:36;69;62;
47079;PMS5003;33067;49.296;14.470;2024-01-06T12:45:01;74;70;
47079;PMS5003;33067;49.296;14.470;2024-01-06T12:47:27;63;57;
47079;PMS5003;33067;49.296;14.470;2024-01-06T12:49:52;68;61;
47079;PMS5003;33067;49.296;14.470;2024-01-06T12:52:18;64;59;
47079;PMS5003;33067;49.296;14.470;2024-01-06T12:54:43;75;71;
47079;PMS5003;33067;49.296;14.470;2024-01-06T12:57:09;85;76;
47079;PMS5003;33067;49.296;14.470;2024-01-06T12:59:34;79;71;
47079;PMS5003;33067;49.296;14.470;2024-01-06T13:02:00;63;59;
47079;PMS5003;33067;49.296;14.470;2024-01-06T13:04:25;51;50;
47079;PMS5003;33067;49.296;14.470;2024-01-06T13:06:50;48;48;
47079;PMS5003;33067;49.296;14.470;2024-01-06T13:09:16;50;45;
47079;PMS5003;33067;49.296;14.470;2024-01-06T13:11:41;49;48;
47079;PMS5003;33067;49.296;14.470;2024-01-06T13:14:06;40;36;
47079;PMS5003;33067;49.296;14.470;2024-01-06T13:16:32;42;39;
47079;PMS5003;33067;49.296;14.470;2024-01-06T13:18:58;45;42;
47079;PMS5003;33067;49.296;14.470;2024-01-06T13:21:24;47;41;
47079;PMS5003;33067;49.296;14.470;2024-01-06T13:23:49;31;27;
47079;PMS5003;33067;49.296;14.470;2024-01-06T13:26:14;43;38;
47079;PMS5003;33067;49.296;14.470;2024-01-06T13:28:40;28;28;
47079;PMS5003;33067;49.296;14.470;2024-01-06T13:31:05;26;26;
47079;PMS5003;33067;49.296;14.470;2024-01-06T13:33:31;28;27;
47079;PMS5003;33067;49.296;14.470;2024-01-06T13:35:55;34;33;
47079;PMS5003;33067;49.296;14.470;2024-01-06T13:38:21;31;26;
47079;PMS5003;33067;49.296;14.470;2024-01-06T13:40:47;28;28;
47079;PMS5003;33067;49.296;14.470;2024-01-06T13:43:12;34;32;
47079;PMS5003;33067;49.296;14.470;2024-01-06T13:45:38;36;36;
47079;PMS5003;33067;49.296;14.470;2024-01-06T13:48:04;32;30;
47079;PMS5003;33067;49.296;14.470;2024-01-06T13:50:29;43;42;
47079;PMS5003;33067;49.296;14.470;2024-01-06T13:52:55;42;40;
47079;PMS5003;33067;49.296;14.470;2024-01-06T13:55:21;49;46;
47079;PMS5003;33067;49.296;14.470;2024-01-06T13:57:47;39;36;
47079;PMS5003;33067;49.296;14.470;2024-01-06T14:00:13;49;44;
47079;PMS5003;33067;49.296;14.470;2024-01-06T14:02:38;40;40;
47079;PMS5003;33067;49.296;14.470;2024-01-06T14:05:03;34;31;
47079;PMS5003;33067;49.296;14.470;2024-01-06T14:07:30;44;43;
47079;PMS5003;33067;49.296;14.470;2024-01-06T14:09:54;45;44;
47079;PMS5003;33067;49.296;14.470;2024-01-06T14:12:19;39;36;
47079;PMS5003;33067;49.296;14.470;2024-01-06T14:14:44;49;43;
47079;PMS5003;33067;49.296;14.470;2024-01-06T14:17:09;52;49;
47079;PMS5003;33067;49.296;14.470;2024-01-06T14:19:35;45;40;
47079;PMS5003;33067;49.296;14.470;2024-01-06T14:22:00;50;48;
47079;PMS5003;33067;49.296;14.470;2024-01-06T14:24:26;63;55;
47079;PMS5003;33067;49.296;14.470;2024-01-06T14:26:52;62;60;
47079;PMS5003;33067;49.296;14.470;2024-01-06T14:29:17;51;47;
47079;PMS5003;33067;49.296;14.470;2024-01-06T14:31:42;56;54;
47079;PMS5003;33067;49.296;14.470;2024-01-06T14:34:08;64;55;
47079;PMS5003;33067;49.296;14.470;2024-01-06T14:36:33;68;62;
47079;PMS5003;33067;49.296;14.470;2024-01-06T14:38:59;54;47;
47079;PMS5003;33067;49.296;14.470;2024-01-06T14:41:24;62;60;
47079;PMS5003;33067;49.296;14.470;2024-01-06T14:43:49;54;53;
47079;PMS5003;33067;49.296;14.470;2024-01-06T14:46:15;66;60;
47079;PMS5003;33067;49.296;14.470;2024-01-06T14:48:40;66;59;
47079;PMS5003;33067;49.296;14.470;2024-01-06T14:51:06;53;53;
47079;PMS5003;33067;49.296;14.470;2024-01-06T14:53:32;51;46;
47079;PMS5003;33067;49.296;14.470;2024-01-06T14:55:58;58;54;
47079;PMS5003;33067;49.296;14.470;2024-01-06T14:58:23;58;56;
47079;PMS5003;33067;49.296;14.470;2024-01-06T15:00:49;66;57;
47079;PMS5003;33067;49.296;14.470;2024-01-06T15:03:14;65;61;
47079;PMS5003;33067;49.296;14.470;2024-01-06T15:05:41;69;62;
47079;PMS5003;33067;49.296;14.470;2024-01-06T15:08:06;64;56;
47079;PMS5003;33067;49.296;14.470;2024-01-06T15:10:31;86;78;
47079;PMS5003;33067;49.296;14.470;2024-01-06T15:12:57;64;59;
47079;PMS5003;33067;49.296;14.470;2024-01-06T15:15:22;62;54;
47079;PMS5003;33067;49.296;14.470;2024-01-06T15:17:48;55;48;
47079;PMS5003;33067;49.296;14.470;2024-01-06T15:20:13;53;47;
47079;PMS5003;33067;49.296;14.470;2024-01-06T15:22:38;68;60;
47079;PMS5003;33067;49.296;14.470;2024-01-06T15:25:04;60;57;
47079;PMS5003;33067;49.296;14.470;2024-01-06T15:27:29;54;51;
47079;PMS5003;33067;49.296;14.470;2024-01-06T15:29:55;61;58;
47079;PMS5003;33067;49.296;14.470;2024-01-06T15:32:20;61;60;
47079;PMS5003;33067;49.296;14.470;2024-01-06T15:34:46;68;63;
47079;PMS5003;33067;49.296;14.470;2024-01-06T15:37:11;75;62;
47079;PMS5003;33067;49.296;14.470;2024-01-06T15:39:36;69;66;
47079;PMS5003;33067;49.296;14.470;2024-01-06T15:42:02;69;59;
47079;PMS5003;33067;49.296;14.470;2024-01-06T15:44:27;66;58;
47079;PMS5003;33067;49.296;14.470;2024-01-06T15:46:52;70;64;
47079;PMS5003;33067;49.296;14.470;2024-01-06T15:49:17;65;57;
47079;PMS5003;33067;49.296;14.470;2024-01-06T15:51:43;62;52;
47079;PMS5003;33067;49.296;14.470;2024-01-06T15:54:09;65;56;
47079;PMS5003;33067;49.296;14.470;2024-01-06T15:56:34;59;55;
47079;PMS5003;33067;49.296;14.470;2024-01-06T15:59:00;44;44;
47079;PMS5003;33067;49.296;14.470;2024-01-06T16:01:27;47;46;